sensor_id;sensor_type;location;lat;lon;timestamp;P1;durP1;ratioP1;P2;durP2;ratioP2
5297;SDS011;14738;42.668;23.250;2023-04-15T00:01:23;6.33;;;5.30;;
5297;SDS011;14738;42.668;23.250;2023-04-15T00:03:52;5.40;;;4.90;;
5297;SDS011;14738;42.668;23.250;2023-04-15T00:06:19;6.73;;;5.27;;
5297;SDS011;14738;42.668;23.250;2023-04-15T00:08:47;5.53;;;5.03;;
5297;SDS011;14738;42.668;23.250;2023-04-15T00:11:14;6.20;;;5.23;;
5297;SDS011;14738;42.668;23.250;2023-04-15T00:13:40;11.87;;;5.67;;
5297;SDS011;14738;42.668;23.250;2023-04-15T00:16:07;8.53;;;5.53;;
5297;SDS011;14738;42.668;23.250;2023-04-15T00:18:32;7.80;;;5.77;;
5297;SDS011;14738;42.668;23.250;2023-04-15T00:20:58;8.10;;;5.40;;
5297;SDS011;14738;42.668;23.250;2023-04-15T00:23:24;6.97;;;5.97;;
5297;SDS011;14738;42.668;23.250;2023-04-15T00:25:50;5.67;;;4.50;;
5297;SDS011;14738;42.668;23.250;2023-04-15T00:28:16;6.23;;;5.00;;
5297;SDS011;14738;42.668;23.250;2023-04-15T00:30:42;5.77;;;4.90;;
5297;SDS011;14738;42.668;23.250;2023-04-15T00:33:07;4.60;;;4.20;;
5297;SDS011;14738;42.668;23.250;2023-04-15T00:35:33;5.40;;;3.53;;
5297;SDS011;14738;42.668;23.250;2023-04-15T00:37:58;4.23;;;3.77;;
5297;SDS011;14738;42.668;23.250;2023-04-15T00:40:24;4.20;;;3.80;;
5297;SDS011;14738;42.668;23.250;2023-04-15T00:42:50;4.83;;;4.00;;
5297;SDS011;14738;42.668;23.250;2023-04-15T00:45:16;5.93;;;4.37;;
5297;SDS011;14738;42.668;23.250;2023-04-15T00:47:42;7.07;;;4.30;;
5297;SDS011;14738;42.668;23.250;2023-04-15T00:50:08;4.47;;;4.10;;
5297;SDS011;14738;42.668;23.250;2023-04-15T00:52:34;4.50;;;4.10;;
5297;SDS011;14738;42.668;23.250;2023-04-15T00:55:03;5.27;;;4.40;;
5297;SDS011;14738;42.668;23.250;2023-04-15T00:57:29;4.67;;;3.63;;
5297;SDS011;14738;42.668;23.250;2023-04-15T00:59:55;5.87;;;5.37;;
5297;SDS011;14738;42.668;23.250;2023-04-15T01:02:21;8.20;;;5.33;;
5297;SDS011;14738;42.668;23.250;2023-04-15T01:04:47;5.80;;;5.10;;
5297;SDS011;14738;42.668;23.250;2023-04-15T01:07:13;6.03;;;5.47;;
5297;SDS011;14738;42.668;23.250;2023-04-15T01:09:39;6.53;;;4.27;;
5297;SDS011;14738;42.668;23.250;2023-04-15T01:12:05;8.30;;;3.97;;
5297;SDS011;14738;42.668;23.250;2023-04-15T01:14:32;5.53;;;4.57;;
5297;SDS011;14738;42.668;23.250;2023-04-15T01:16:58;4.73;;;4.20;;
5297;SDS011;14738;42.668;23.250;2023-04-15T01:19:23;6.90;;;4.23;;
5297;SDS011;14738;42.668;23.250;2023-04-15T01:21:48;6.77;;;4.87;;
5297;SDS011;14738;42.668;23.250;2023-04-15T01:24:14;5.60;;;5.00;;
5297;SDS011;14738;42.668;23.250;2023-04-15T01:26:42;6.23;;;5.70;;
5297;SDS011;14738;42.668;23.250;2023-04-15T01:29:09;7.90;;;5.83;;
5297;SDS011;14738;42.668;23.250;2023-04-15T01:31:34;5.50;;;5.00;;
5297;SDS011;14738;42.668;23.250;2023-04-15T01:34:00;7.10;;;5.63;;
5297;SDS011;14738;42.668;23.250;2023-04-15T01:36:26;6.50;;;5.90;;
5297;SDS011;14738;42.668;23.250;2023-04-15T01:38:52;6.50;;;5.90;;
5297;SDS011;14738;42.668;23.250;2023-04-15T01:41:36;5.70;;;5.20;;
5297;SDS011;14738;42.668;23.250;2023-04-15T01:44:01;6.53;;;5.10;;
5297;SDS011;14738;42.668;23.250;2023-04-15T01:46:26;5.13;;;4.47;;
5297;SDS011;14738;42.668;23.250;2023-04-15T01:48:52;5.77;;;4.40;;
5297;SDS011;14738;42.668;23.250;2023-04-15T01:51:17;5.50;;;5.10;;
5297;SDS011;14738;42.668;23.250;2023-04-15T01:53:43;5.00;;;4.60;;
5297;SDS011;14738;42.668;23.250;2023-04-15T01:56:08;7.23;;;6.50;;
5297;SDS011;14738;42.668;23.250;2023-04-15T01:58:34;5.57;;;5.07;;
5297;SDS011;14738;42.668;23.250;2023-04-15T02:00:59;7.63;;;4.83;;
5297;SDS011;14738;42.668;23.250;2023-04-15T02:03:27;4.80;;;4.40;;
5297;SDS011;14738;42.668;23.250;2023-04-15T02:05:53;5.20;;;4.70;;
5297;SDS011;14738;42.668;23.250;2023-04-15T02:08:19;8.63;;;5.37;;
5297;SDS011;14738;42.668;23.250;2023-04-15T02:10:44;4.67;;;4.27;;
5297;SDS011;14738;42.668;23.250;2023-04-15T02:13:09;5.70;;;4.83;;
5297;SDS011;14738;42.668;23.250;2023-04-15T02:15:35;6.50;;;4.70;;
5297;SDS011;14738;42.668;23.250;2023-04-15T02:18:00;6.43;;;5.30;;
5297;SDS011;14738;42.668;23.250;2023-04-15T02:20:26;8.13;;;5.00;;
5297;SDS011;14738;42.668;23.250;2023-04-15T02:22:52;4.63;;;4.33;;
5297;SDS011;14738;42.668;23.250;2023-04-15T02:25:17;5.30;;;4.33;;
5297;SDS011;14738;42.668;23.250;2023-04-15T02:27:44;4.80;;;4.43;;
5297;SDS011;14738;42.668;23.250;2023-04-15T02:30:09;5.43;;;4.93;;
5297;SDS011;14738;42.668;23.250;2023-04-15T02:32:35;4.43;;;4.10;;
5297;SDS011;14738;42.668;23.250;2023-04-15T02:35:04;4.40;;;4.00;;
5297;SDS011;14738;42.668;23.250;2023-04-15T02:37:31;4.80;;;4.23;;
5297;SDS011;14738;42.668;23.250;2023-04-15T02:40:01;4.57;;;4.20;;
5297;SDS011;14738;42.668;23.250;2023-04-15T02:42:26;4.57;;;4.03;;
5297;SDS011;14738;42.668;23.250;2023-04-15T02:44:52;4.97;;;4.47;;
5297;SDS011;14738;42.668;23.250;2023-04-15T02:47:19;5.03;;;4.50;;
5297;SDS011;14738;42.668;23.250;2023-04-15T02:49:44;6.87;;;4.83;;
5297;SDS011;14738;42.668;23.250;2023-04-15T02:52:09;5.70;;;5.10;;
5297;SDS011;14738;42.668;23.250;2023-04-15T02:54:35;4.50;;;4.10;;
5297;SDS011;14738;42.668;23.250;2023-04-15T02:57:01;3.87;;;3.57;;
5297;SDS011;14738;42.668;23.250;2023-04-15T02:59:26;11.10;;;4.90;;
5297;SDS011;14738;42.668;23.250;2023-04-15T03:01:51;8.73;;;6.60;;
5297;SDS011;14738;42.668;23.250;2023-04-15T03:04:17;9.07;;;6.20;;
5297;SDS011;14738;42.668;23.250;2023-04-15T03:06:42;7.07;;;5.90;;
5297;SDS011;14738;42.668;23.250;2023-04-15T03:09:08;6.43;;;5.83;;
5297;SDS011;14738;42.668;23.250;2023-04-15T03:11:33;9.50;;;6.30;;
5297;SDS011;14738;42.668;23.250;2023-04-15T03:14:00;9.50;;;7.03;;
5297;SDS011;14738;42.668;23.250;2023-04-15T03:16:26;7.60;;;6.40;;
5297;SDS011;14738;42.668;23.250;2023-04-15T03:18:51;7.97;;;6.90;;
5297;SDS011;14738;42.668;23.250;2023-04-15T03:21:16;6.87;;;6.17;;
5297;SDS011;14738;42.668;23.250;2023-04-15T03:23:43;8.00;;;7.13;;
5297;SDS011;14738;42.668;23.250;2023-04-15T03:26:09;9.90;;;7.57;;
5297;SDS011;14738;42.668;23.250;2023-04-15T03:28:34;11.13;;;7.03;;
5297;SDS011;14738;42.668;23.250;2023-04-15T03:31:00;7.57;;;6.87;;
5297;SDS011;14738;42.668;23.250;2023-04-15T03:33:25;7.50;;;6.23;;
5297;SDS011;14738;42.668;23.250;2023-04-15T03:35:51;7.43;;;6.63;;
5297;SDS011;14738;42.668;23.250;2023-04-15T03:38:17;9.90;;;8.17;;
5297;SDS011;14738;42.668;23.250;2023-04-15T03:40:42;10.10;;;8.30;;
5297;SDS011;14738;42.668;23.250;2023-04-15T03:43:08;11.80;;;9.07;;
5297;SDS011;14738;42.668;23.250;2023-04-15T03:45:34;11.13;;;8.03;;
5297;SDS011;14738;42.668;23.250;2023-04-15T03:47:59;12.23;;;8.63;;
5297;SDS011;14738;42.668;23.250;2023-04-15T03:50:25;11.47;;;8.63;;
5297;SDS011;14738;42.668;23.250;2023-04-15T03:52:51;8.47;;;7.57;;
5297;SDS011;14738;42.668;23.250;2023-04-15T03:55:17;7.87;;;6.63;;
5297;SDS011;14738;42.668;23.250;2023-04-15T03:57:42;7.60;;;6.63;;
5297;SDS011;14738;42.668;23.250;2023-04-15T04:00:08;8.27;;;7.07;;
5297;SDS011;14738;42.668;23.250;2023-04-15T04:02:36;7.93;;;6.80;;
5297;SDS011;14738;42.668;23.250;2023-04-15T04:05:02;13.60;;;7.97;;
5297;SDS011;14738;42.668;23.250;2023-04-15T04:07:28;9.97;;;8.13;;
5297;SDS011;14738;42.668;23.250;2023-04-15T04:09:55;8.53;;;7.50;;
5297;SDS011;14738;42.668;23.250;2023-04-15T04:12:21;7.90;;;7.20;;
5297;SDS011;14738;42.668;23.250;2023-04-15T04:14:46;9.47;;;8.30;;
5297;SDS011;14738;42.668;23.250;2023-04-15T04:17:12;11.30;;;9.60;;
5297;SDS011;14738;42.668;23.250;2023-04-15T04:19:37;13.07;;;8.10;;
5297;SDS011;14738;42.668;23.250;2023-04-15T04:22:03;10.30;;;9.13;;
5297;SDS011;14738;42.668;23.250;2023-04-15T04:24:28;11.83;;;8.90;;
5297;SDS011;14738;42.668;23.250;2023-04-15T04:26:53;13.23;;;9.87;;
5297;SDS011;14738;42.668;23.250;2023-04-15T04:29:20;16.40;;;11.80;;
5297;SDS011;14738;42.668;23.250;2023-04-15T04:31:45;11.10;;;8.93;;
5297;SDS011;14738;42.668;23.250;2023-04-15T04:34:12;14.13;;;10.70;;
5297;SDS011;14738;42.668;23.250;2023-04-15T04:36:38;7.20;;;6.10;;
5297;SDS011;14738;42.668;23.250;2023-04-15T04:39:03;5.40;;;4.90;;
5297;SDS011;14738;42.668;23.250;2023-04-15T04:41:28;7.57;;;4.77;;
5297;SDS011;14738;42.668;23.250;2023-04-15T04:43:54;4.80;;;4.30;;
5297;SDS011;14738;42.668;23.250;2023-04-15T04:46:19;5.97;;;5.47;;
5297;SDS011;14738;42.668;23.250;2023-04-15T04:48:45;6.10;;;5.20;;
5297;SDS011;14738;42.668;23.250;2023-04-15T04:51:11;7.20;;;4.80;;
5297;SDS011;14738;42.668;23.250;2023-04-15T04:53:36;7.17;;;5.80;;
5297;SDS011;14738;42.668;23.250;2023-04-15T04:56:02;5.57;;;5.07;;
5297;SDS011;14738;42.668;23.250;2023-04-15T04:58:27;5.77;;;4.87;;
5297;SDS011;14738;42.668;23.250;2023-04-15T05:00:53;5.87;;;5.37;;
5297;SDS011;14738;42.668;23.250;2023-04-15T05:03:18;5.50;;;5.00;;
5297;SDS011;14738;42.668;23.250;2023-04-15T05:05:44;5.47;;;4.97;;
5297;SDS011;14738;42.668;23.250;2023-04-15T05:08:09;5.30;;;4.50;;
5297;SDS011;14738;42.668;23.250;2023-04-15T05:10:35;4.23;;;3.90;;
5297;SDS011;14738;42.668;23.250;2023-04-15T05:13:00;4.63;;;4.20;;
5297;SDS011;14738;42.668;23.250;2023-04-15T05:15:26;17.00;;;4.23;;
5297;SDS011;14738;42.668;23.250;2023-04-15T05:17:51;4.73;;;4.30;;
5297;SDS011;14738;42.668;23.250;2023-04-15T05:20:16;7.90;;;4.97;;
5297;SDS011;14738;42.668;23.250;2023-04-15T05:22:42;5.50;;;5.00;;
5297;SDS011;14738;42.668;23.250;2023-04-15T05:25:07;5.70;;;5.20;;
5297;SDS011;14738;42.668;23.250;2023-04-15T05:27:33;6.80;;;4.93;;
5297;SDS011;14738;42.668;23.250;2023-04-15T05:29:59;7.50;;;6.70;;
5297;SDS011;14738;42.668;23.250;2023-04-15T05:32:25;6.83;;;6.10;;
5297;SDS011;14738;42.668;23.250;2023-04-15T05:34:50;7.90;;;6.50;;
5297;SDS011;14738;42.668;23.250;2023-04-15T05:37:16;9.47;;;7.50;;
5297;SDS011;14738;42.668;23.250;2023-04-15T05:39:41;10.30;;;9.20;;
5297;SDS011;14738;42.668;23.250;2023-04-15T05:42:07;10.67;;;9.27;;
5297;SDS011;14738;42.668;23.250;2023-04-15T05:44:32;12.17;;;10.80;;
5297;SDS011;14738;42.668;23.250;2023-04-15T05:46:58;13.40;;;12.10;;
5297;SDS011;14738;42.668;23.250;2023-04-15T05:49:23;12.33;;;11.03;;
5297;SDS011;14738;42.668;23.250;2023-04-15T05:51:48;13.37;;;12.07;;
5297;SDS011;14738;42.668;23.250;2023-04-15T05:54:14;11.77;;;10.77;;
5297;SDS011;14738;42.668;23.250;2023-04-15T05:56:40;12.00;;;10.57;;
5297;SDS011;14738;42.668;23.250;2023-04-15T05:59:05;14.00;;;11.03;;
5297;SDS011;14738;42.668;23.250;2023-04-15T06:01:32;11.00;;;9.90;;
5297;SDS011;14738;42.668;23.250;2023-04-15T06:03:58;12.63;;;10.50;;
5297;SDS011;14738;42.668;23.250;2023-04-15T06:06:23;11.10;;;9.90;;
5297;SDS011;14738;42.668;23.250;2023-04-15T06:08:49;12.07;;;10.80;;
5297;SDS011;14738;42.668;23.250;2023-04-15T06:11:14;13.50;;;12.10;;
5297;SDS011;14738;42.668;23.250;2023-04-15T06:13:40;11.83;;;10.60;;
5297;SDS011;14738;42.668;23.250;2023-04-15T06:16:05;12.23;;;9.83;;
5297;SDS011;14738;42.668;23.250;2023-04-15T06:18:31;14.20;;;9.47;;
5297;SDS011;14738;42.668;23.250;2023-04-15T06:20:57;13.30;;;10.47;;
5297;SDS011;14738;42.668;23.250;2023-04-15T06:23:22;12.07;;;10.20;;
5297;SDS011;14738;42.668;23.250;2023-04-15T06:25:48;8.63;;;7.80;;
5297;SDS011;14738;42.668;23.250;2023-04-15T06:28:13;9.27;;;8.37;;
5297;SDS011;14738;42.668;23.250;2023-04-15T06:30:39;5.90;;;5.30;;
5297;SDS011;14738;42.668;23.250;2023-04-15T06:33:04;7.60;;;5.60;;
5297;SDS011;14738;42.668;23.250;2023-04-15T06:35:30;8.23;;;5.23;;
5297;SDS011;14738;42.668;23.250;2023-04-15T06:37:55;8.60;;;6.47;;
5297;SDS011;14738;42.668;23.250;2023-04-15T06:40:21;9.07;;;8.20;;
5297;SDS011;14738;42.668;23.250;2023-04-15T06:42:46;8.77;;;5.93;;
5297;SDS011;14738;42.668;23.250;2023-04-15T06:45:12;5.00;;;4.00;;
5297;SDS011;14738;42.668;23.250;2023-04-15T06:47:37;7.53;;;6.60;;
5297;SDS011;14738;42.668;23.250;2023-04-15T06:50:03;6.70;;;5.53;;
5297;SDS011;14738;42.668;23.250;2023-04-15T06:52:28;8.03;;;6.80;;
5297;SDS011;14738;42.668;23.250;2023-04-15T06:54:54;6.80;;;6.00;;
5297;SDS011;14738;42.668;23.250;2023-04-15T06:57:19;7.20;;;6.50;;
5297;SDS011;14738;42.668;23.250;2023-04-15T06:59:45;7.63;;;5.73;;
5297;SDS011;14738;42.668;23.250;2023-04-15T07:02:11;8.03;;;6.00;;
5297;SDS011;14738;42.668;23.250;2023-04-15T07:04:38;5.20;;;4.07;;
5297;SDS011;14738;42.668;23.250;2023-04-15T07:07:04;3.60;;;1.90;;
5297;SDS011;14738;42.668;23.250;2023-04-15T07:09:30;1.97;;;1.87;;
5297;SDS011;14738;42.668;23.250;2023-04-15T07:11:56;2.93;;;1.87;;
5297;SDS011;14738;42.668;23.250;2023-04-15T07:14:21;2.10;;;1.97;;
5297;SDS011;14738;42.668;23.250;2023-04-15T07:16:47;1.80;;;1.70;;
5297;SDS011;14738;42.668;23.250;2023-04-15T07:19:12;1.67;;;1.30;;
5297;SDS011;14738;42.668;23.250;2023-04-15T07:21:37;1.30;;;1.27;;
5297;SDS011;14738;42.668;23.250;2023-04-15T07:24:03;3.40;;;1.30;;
5297;SDS011;14738;42.668;23.250;2023-04-15T07:26:29;1.13;;;1.03;;
5297;SDS011;14738;42.668;23.250;2023-04-15T07:28:54;3.60;;;1.40;;
5297;SDS011;14738;42.668;23.250;2023-04-15T07:31:20;1.37;;;1.27;;
5297;SDS011;14738;42.668;23.250;2023-04-15T07:33:46;2.83;;;1.67;;
5297;SDS011;14738;42.668;23.250;2023-04-15T07:36:11;2.60;;;1.77;;
5297;SDS011;14738;42.668;23.250;2023-04-15T07:38:37;3.03;;;1.80;;
5297;SDS011;14738;42.668;23.250;2023-04-15T07:41:03;2.17;;;1.60;;
5297;SDS011;14738;42.668;23.250;2023-04-15T07:43:28;2.47;;;1.87;;
5297;SDS011;14738;42.668;23.250;2023-04-15T07:45:54;1.87;;;1.53;;
5297;SDS011;14738;42.668;23.250;2023-04-15T07:48:19;2.00;;;1.40;;
5297;SDS011;14738;42.668;23.250;2023-04-15T07:50:45;4.73;;;1.30;;
5297;SDS011;14738;42.668;23.250;2023-04-15T07:53:10;3.80;;;1.50;;
5297;SDS011;14738;42.668;23.250;2023-04-15T07:55:36;1.23;;;1.23;;
5297;SDS011;14738;42.668;23.250;2023-04-15T07:58:02;1.90;;;1.53;;
5297;SDS011;14738;42.668;23.250;2023-04-15T08:00:28;4.07;;;1.77;;
5297;SDS011;14738;42.668;23.250;2023-04-15T08:02:55;1.40;;;1.30;;
5297;SDS011;14738;42.668;23.250;2023-04-15T08:05:21;2.90;;;1.73;;
5297;SDS011;14738;42.668;23.250;2023-04-15T08:07:46;1.33;;;1.10;;
5297;SDS011;14738;42.668;23.250;2023-04-15T08:10:13;1.73;;;1.20;;
5297;SDS011;14738;42.668;23.250;2023-04-15T08:12:38;1.30;;;1.20;;
5297;SDS011;14738;42.668;23.250;2023-04-15T08:15:04;1.20;;;1.20;;
5297;SDS011;14738;42.668;23.250;2023-04-15T08:17:30;1.83;;;1.20;;
5297;SDS011;14738;42.668;23.250;2023-04-15T08:19:55;1.80;;;1.50;;
5297;SDS011;14738;42.668;23.250;2023-04-15T08:22:21;2.00;;;1.47;;
5297;SDS011;14738;42.668;23.250;2023-04-15T08:24:47;2.97;;;1.80;;
5297;SDS011;14738;42.668;23.250;2023-04-15T08:27:12;2.50;;;1.97;;
5297;SDS011;14738;42.668;23.250;2023-04-15T08:29:37;2.63;;;2.07;;
5297;SDS011;14738;42.668;23.250;2023-04-15T08:32:04;2.27;;;2.17;;
5297;SDS011;14738;42.668;23.250;2023-04-15T08:34:30;1.83;;;1.53;;
5297;SDS011;14738;42.668;23.250;2023-04-15T08:36:55;1.57;;;1.47;;
5297;SDS011;14738;42.668;23.250;2023-04-15T08:39:21;2.20;;;1.53;;
5297;SDS011;14738;42.668;23.250;2023-04-15T08:41:47;2.97;;;1.60;;
5297;SDS011;14738;42.668;23.250;2023-04-15T08:44:20;2.30;;;1.50;;
5297;SDS011;14738;42.668;23.250;2023-04-15T08:46:48;1.60;;;1.10;;
5297;SDS011;14738;42.668;23.250;2023-04-15T08:49:15;6.27;;;2.27;;
5297;SDS011;14738;42.668;23.250;2023-04-15T08:51:43;4.70;;;2.10;;
5297;SDS011;14738;42.668;23.250;2023-04-15T08:54:09;3.90;;;1.60;;
5297;SDS011;14738;42.668;23.250;2023-04-15T08:56:35;1.20;;;1.13;;
5297;SDS011;14738;42.668;23.250;2023-04-15T08:59:01;2.67;;;1.20;;
5297;SDS011;14738;42.668;23.250;2023-04-15T09:01:26;2.60;;;1.30;;
5297;SDS011;14738;42.668;23.250;2023-04-15T09:03:52;1.97;;;1.57;;
5297;SDS011;14738;42.668;23.250;2023-04-15T09:06:21;2.20;;;1.20;;
5297;SDS011;14738;42.668;23.250;2023-04-15T09:08:47;1.90;;;1.37;;
5297;SDS011;14738;42.668;23.250;2023-04-15T09:11:13;3.37;;;1.30;;
5297;SDS011;14738;42.668;23.250;2023-04-15T09:13:38;1.53;;;1.10;;
5297;SDS011;14738;42.668;23.250;2023-04-15T09:16:04;1.73;;;1.40;;
5297;SDS011;14738;42.668;23.250;2023-04-15T09:18:34;1.93;;;1.43;;
5297;SDS011;14738;42.668;23.250;2023-04-15T09:21:08;3.03;;;1.53;;
5297;SDS011;14738;42.668;23.250;2023-04-15T09:23:35;1.57;;;1.20;;
5297;SDS011;14738;42.668;23.250;2023-04-15T09:26:05;1.30;;;1.20;;
5297;SDS011;14738;42.668;23.250;2023-04-15T09:28:31;1.20;;;1.10;;
5297;SDS011;14738;42.668;23.250;2023-04-15T09:30:57;1.43;;;1.10;;
5297;SDS011;14738;42.668;23.250;2023-04-15T09:33:23;1.40;;;1.27;;
5297;SDS011;14738;42.668;23.250;2023-04-15T09:36:02;5.13;;;1.60;;
5297;SDS011;14738;42.668;23.250;2023-04-15T09:38:29;6.13;;;1.30;;
5297;SDS011;14738;42.668;23.250;2023-04-15T09:40:55;2.30;;;1.30;;
5297;SDS011;14738;42.668;23.250;2023-04-15T09:43:21;3.90;;;1.30;;
5297;SDS011;14738;42.668;23.250;2023-04-15T09:45:55;1.30;;;1.00;;
5297;SDS011;14738;42.668;23.250;2023-04-15T09:48:22;1.40;;;1.30;;
5297;SDS011;14738;42.668;23.250;2023-04-15T09:50:51;1.47;;;1.37;;
5297;SDS011;14738;42.668;23.250;2023-04-15T09:53:21;3.20;;;1.90;;
5297;SDS011;14738;42.668;23.250;2023-04-15T09:55:51;4.13;;;1.60;;
5297;SDS011;14738;42.668;23.250;2023-04-15T10:00:48;1.50;;;1.40;;
5297;SDS011;14738;42.668;23.250;2023-04-15T10:03:22;1.80;;;1.70;;
5297;SDS011;14738;42.668;23.250;2023-04-15T10:05:50;1.53;;;1.40;;
5297;SDS011;14738;42.668;23.250;2023-04-15T10:08:18;1.60;;;1.50;;
5297;SDS011;14738;42.668;23.250;2023-04-15T10:10:45;1.47;;;1.27;;
5297;SDS011;14738;42.668;23.250;2023-04-15T10:13:16;1.40;;;1.30;;
5297;SDS011;14738;42.668;23.250;2023-04-15T10:15:57;2.70;;;1.53;;
5297;SDS011;14738;42.668;23.250;2023-04-15T10:18:25;1.90;;;1.77;;
5297;SDS011;14738;42.668;23.250;2023-04-15T10:20:52;2.20;;;1.17;;
5297;SDS011;14738;42.668;23.250;2023-04-15T10:23:18;1.43;;;1.30;;
5297;SDS011;14738;42.668;23.250;2023-04-15T10:25:47;6.97;;;3.20;;
5297;SDS011;14738;42.668;23.250;2023-04-15T10:28:15;8.17;;;3.97;;
5297;SDS011;14738;42.668;23.250;2023-04-15T10:30:41;4.03;;;2.80;;
5297;SDS011;14738;42.668;23.250;2023-04-15T10:33:07;6.27;;;2.67;;
5297;SDS011;14738;42.668;23.250;2023-04-15T10:35:33;3.13;;;1.60;;
5297;SDS011;14738;42.668;23.250;2023-04-15T10:38:00;1.20;;;1.20;;
5297;SDS011;14738;42.668;23.250;2023-04-15T10:42:53;2.80;;;2.00;;
5297;SDS011;14738;42.668;23.250;2023-04-15T10:45:19;3.33;;;1.33;;
5297;SDS011;14738;42.668;23.250;2023-04-15T10:47:44;2.23;;;1.50;;
5297;SDS011;14738;42.668;23.250;2023-04-15T10:50:10;1.47;;;1.40;;
5297;SDS011;14738;42.668;23.250;2023-04-15T10:52:36;1.20;;;1.10;;
5297;SDS011;14738;42.668;23.250;2023-04-15T10:55:12;1.73;;;1.40;;
5297;SDS011;14738;42.668;23.250;2023-04-15T10:57:40;2.70;;;1.83;;
5297;SDS011;14738;42.668;23.250;2023-04-15T11:05:11;4.30;;;1.60;;
5297;SDS011;14738;42.668;23.250;2023-04-15T11:13:01;2.30;;;1.20;;
5297;SDS011;14738;42.668;23.250;2023-04-15T11:17:59;2.80;;;2.00;;
5297;SDS011;14738;42.668;23.250;2023-04-15T11:20:32;1.80;;;1.40;;
5297;SDS011;14738;42.668;23.250;2023-04-15T11:22:58;1.50;;;1.40;;
5297;SDS011;14738;42.668;23.250;2023-04-15T11:25:24;1.50;;;1.40;;
5297;SDS011;14738;42.668;23.250;2023-04-15T11:27:54;2.07;;;1.20;;
5297;SDS011;14738;42.668;23.250;2023-04-15T11:32:50;2.93;;;1.83;;
5297;SDS011;14738;42.668;23.250;2023-04-15T11:35:16;2.13;;;1.50;;
5297;SDS011;14738;42.668;23.250;2023-04-15T11:37:42;1.93;;;1.77;;
5297;SDS011;14738;42.668;23.250;2023-04-15T11:40:09;1.43;;;1.33;;
5297;SDS011;14738;42.668;23.250;2023-04-15T11:42:35;1.37;;;1.27;;
5297;SDS011;14738;42.668;23.250;2023-04-15T11:45:07;1.63;;;1.40;;
5297;SDS011;14738;42.668;23.250;2023-04-15T11:47:33;1.90;;;1.50;;
5297;SDS011;14738;42.668;23.250;2023-04-15T11:50:13;2.87;;;1.67;;
5297;SDS011;14738;42.668;23.250;2023-04-15T11:55:18;2.80;;;1.70;;
5297;SDS011;14738;42.668;23.250;2023-04-15T11:57:44;2.03;;;1.93;;
5297;SDS011;14738;42.668;23.250;2023-04-15T12:00:10;1.50;;;1.40;;
5297;SDS011;14738;42.668;23.250;2023-04-15T12:02:36;1.40;;;1.30;;
5297;SDS011;14738;42.668;23.250;2023-04-15T12:05:02;1.70;;;1.60;;
5297;SDS011;14738;42.668;23.250;2023-04-15T12:07:29;2.83;;;2.50;;
5297;SDS011;14738;42.668;23.250;2023-04-15T12:09:54;1.40;;;1.40;;
5297;SDS011;14738;42.668;23.250;2023-04-15T12:12:21;1.33;;;1.10;;
5297;SDS011;14738;42.668;23.250;2023-04-15T12:14:51;1.70;;;1.43;;
5297;SDS011;14738;42.668;23.250;2023-04-15T12:17:16;1.10;;;1.00;;
5297;SDS011;14738;42.668;23.250;2023-04-15T12:19:42;1.57;;;1.10;;
5297;SDS011;14738;42.668;23.250;2023-04-15T12:22:13;1.50;;;1.33;;
5297;SDS011;14738;42.668;23.250;2023-04-15T12:24:40;1.90;;;1.10;;
5297;SDS011;14738;42.668;23.250;2023-04-15T12:27:12;1.00;;;1.00;;
5297;SDS011;14738;42.668;23.250;2023-04-15T12:29:40;2.10;;;1.30;;
5297;SDS011;14738;42.668;23.250;2023-04-15T12:37:04;1.73;;;1.50;;
5297;SDS011;14738;42.668;23.250;2023-04-15T12:39:30;2.77;;;1.37;;
5297;SDS011;14738;42.668;23.250;2023-04-15T12:41:59;1.60;;;1.50;;
5297;SDS011;14738;42.668;23.250;2023-04-15T12:44:25;1.40;;;1.30;;
5297;SDS011;14738;42.668;23.250;2023-04-15T12:46:51;2.90;;;1.43;;
5297;SDS011;14738;42.668;23.250;2023-04-15T12:49:20;1.50;;;1.40;;
5297;SDS011;14738;42.668;23.250;2023-04-15T12:51:49;1.60;;;1.50;;
5297;SDS011;14738;42.668;23.250;2023-04-15T12:54:16;1.90;;;1.50;;
5297;SDS011;14738;42.668;23.250;2023-04-15T12:56:42;1.37;;;1.27;;
5297;SDS011;14738;42.668;23.250;2023-04-15T12:59:08;1.57;;;1.07;;
5297;SDS011;14738;42.668;23.250;2023-04-15T13:01:34;1.40;;;1.00;;
5297;SDS011;14738;42.668;23.250;2023-04-15T13:04:00;2.13;;;1.17;;
5297;SDS011;14738;42.668;23.250;2023-04-15T13:06:26;1.20;;;1.07;;
5297;SDS011;14738;42.668;23.250;2023-04-15T13:08:53;1.33;;;1.20;;
5297;SDS011;14738;42.668;23.250;2023-04-15T13:11:19;1.30;;;1.20;;
5297;SDS011;14738;42.668;23.250;2023-04-15T13:13:47;1.30;;;1.20;;
5297;SDS011;14738;42.668;23.250;2023-04-15T13:16:12;1.10;;;1.10;;
5297;SDS011;14738;42.668;23.250;2023-04-15T13:18:38;1.53;;;0.93;;
5297;SDS011;14738;42.668;23.250;2023-04-15T13:21:03;1.47;;;1.10;;
5297;SDS011;14738;42.668;23.250;2023-04-15T13:23:31;1.23;;;1.10;;
5297;SDS011;14738;42.668;23.250;2023-04-15T13:25:57;1.40;;;1.30;;
5297;SDS011;14738;42.668;23.250;2023-04-15T13:28:22;1.70;;;1.60;;
5297;SDS011;14738;42.668;23.250;2023-04-15T13:30:48;1.40;;;1.30;;
5297;SDS011;14738;42.668;23.250;2023-04-15T13:33:13;1.40;;;1.40;;
5297;SDS011;14738;42.668;23.250;2023-04-15T13:35:41;1.17;;;1.17;;
5297;SDS011;14738;42.668;23.250;2023-04-15T13:38:06;1.70;;;1.10;;
5297;SDS011;14738;42.668;23.250;2023-04-15T13:40:31;1.30;;;1.20;;
5297;SDS011;14738;42.668;23.250;2023-04-15T13:42:57;1.00;;;1.00;;
5297;SDS011;14738;42.668;23.250;2023-04-15T13:45:22;3.47;;;1.50;;
5297;SDS011;14738;42.668;23.250;2023-04-15T13:47:48;1.50;;;1.30;;
5297;SDS011;14738;42.668;23.250;2023-04-15T13:50:13;1.73;;;1.63;;
5297;SDS011;14738;42.668;23.250;2023-04-15T13:52:38;1.40;;;1.30;;
5297;SDS011;14738;42.668;23.250;2023-04-15T13:55:04;3.13;;;1.70;;
5297;SDS011;14738;42.668;23.250;2023-04-15T13:57:30;2.43;;;1.47;;
5297;SDS011;14738;42.668;23.250;2023-04-15T13:59:56;3.17;;;2.87;;
5297;SDS011;14738;42.668;23.250;2023-04-15T14:02:22;2.47;;;1.90;;
5297;SDS011;14738;42.668;23.250;2023-04-15T14:04:47;1.93;;;1.40;;
5297;SDS011;14738;42.668;23.250;2023-04-15T14:07:13;1.53;;;0.90;;
5297;SDS011;14738;42.668;23.250;2023-04-15T14:09:38;1.20;;;1.10;;
5297;SDS011;14738;42.668;23.250;2023-04-15T14:12:04;2.77;;;1.40;;
5297;SDS011;14738;42.668;23.250;2023-04-15T14:14:30;1.47;;;1.33;;
5297;SDS011;14738;42.668;23.250;2023-04-15T14:16:55;4.83;;;1.30;;
5297;SDS011;14738;42.668;23.250;2023-04-15T14:19:21;2.70;;;1.23;;
5297;SDS011;14738;42.668;23.250;2023-04-15T14:21:48;1.70;;;1.50;;
5297;SDS011;14738;42.668;23.250;2023-04-15T14:24:13;2.40;;;1.67;;
5297;SDS011;14738;42.668;23.250;2023-04-15T14:26:38;1.70;;;1.17;;
5297;SDS011;14738;42.668;23.250;2023-04-15T14:29:04;1.87;;;1.20;;
5297;SDS011;14738;42.668;23.250;2023-04-15T14:31:29;1.13;;;1.13;;
5297;SDS011;14738;42.668;23.250;2023-04-15T14:33:54;1.20;;;1.10;;
5297;SDS011;14738;42.668;23.250;2023-04-15T14:36:20;1.80;;;1.20;;
5297;SDS011;14738;42.668;23.250;2023-04-15T14:38:45;1.90;;;1.20;;
5297;SDS011;14738;42.668;23.250;2023-04-15T14:41:11;2.43;;;1.30;;
5297;SDS011;14738;42.668;23.250;2023-04-15T14:43:36;1.63;;;0.90;;
5297;SDS011;14738;42.668;23.250;2023-04-15T14:46:01;2.77;;;1.00;;
5297;SDS011;14738;42.668;23.250;2023-04-15T14:48:27;1.93;;;1.10;;
5297;SDS011;14738;42.668;23.250;2023-04-15T14:50:52;1.00;;;0.90;;
5297;SDS011;14738;42.668;23.250;2023-04-15T14:53:18;1.00;;;0.83;;
5297;SDS011;14738;42.668;23.250;2023-04-15T14:55:43;1.07;;;1.00;;
5297;SDS011;14738;42.668;23.250;2023-04-15T14:58:09;1.10;;;1.10;;
5297;SDS011;14738;42.668;23.250;2023-04-15T15:00:35;1.40;;;1.30;;
5297;SDS011;14738;42.668;23.250;2023-04-15T15:03:04;3.90;;;1.50;;
5297;SDS011;14738;42.668;23.250;2023-04-15T15:05:37;1.40;;;1.30;;
5297;SDS011;14738;42.668;23.250;2023-04-15T15:08:04;1.53;;;1.43;;